createdAt,value
2023-04-15T00:01:59.892Z,4.30
2023-04-15T00:04:28.399Z,5.22
2023-04-15T00:06:55.980Z,4.63
2023-04-15T00:09:23.916Z,5.43
2023-04-15T00:11:52.173Z,5.10
2023-04-15T00:14:21.041Z,7.63
2023-04-15T00:16:50.049Z,7.55
2023-04-15T00:19:17.553Z,5.45
2023-04-15T00:21:45.072Z,5.53
2023-04-15T00:24:12.675Z,4.25
2023-04-15T00:26:40.540Z,4.03
2023-04-15T00:29:08.172Z,4.43
2023-04-15T00:31:36.934Z,5.25
2023-04-15T00:36:33.786Z,4.85
2023-04-15T00:39:01.552Z,5.30
2023-04-15T00:41:29.698Z,4.55
2023-04-15T00:43:57.203Z,4.95
2023-04-15T00:46:25.952Z,4.80
2023-04-15T00:51:23.364Z,4.20
2023-04-15T00:53:51.871Z,4.10
2023-04-15T00:56:21.750Z,4.20
2023-04-15T00:58:49.268Z,3.90
2023-04-15T01:01:16.972Z,5.05
2023-04-15T01:03:44.984Z,4.63
2023-04-15T01:06:14.962Z,4.32
2023-04-15T01:08:42.469Z,5.32
2023-04-15T01:11:11.531Z,4.55
2023-04-15T01:13:39.298Z,3.45
2023-04-15T01:16:08.636Z,5.50
2023-04-15T01:18:38.574Z,5.40
2023-04-15T01:21:06.919Z,5.13
2023-04-15T01:23:38.585Z,6.20
2023-04-15T01:26:09.230Z,6.15
2023-04-15T01:28:37.273Z,4.10
2023-04-15T01:31:09.545Z,4.30
2023-04-15T01:33:37.467Z,6.70
2023-04-15T01:36:06.095Z,4.28
2023-04-15T01:38:34.156Z,4.00
2023-04-15T01:41:02.011Z,6.05
2023-04-15T01:43:30.831Z,4.70
2023-04-15T01:48:26.048Z,8.65
2023-04-15T01:50:57.444Z,5.03
2023-04-15T01:53:25.702Z,5.20
2023-04-15T01:55:53.613Z,6.93
2023-04-15T01:58:22.450Z,8.43
2023-04-15T02:03:19.068Z,4.22
2023-04-15T02:05:46.604Z,5.30
2023-04-15T02:08:14.443Z,3.38
2023-04-15T02:10:41.976Z,4.93
2023-04-15T02:13:09.424Z,5.63
2023-04-15T02:15:37.062Z,4.25
2023-04-15T02:18:06.648Z,5.28
2023-04-15T02:20:35.012Z,5.07
2023-04-15T02:23:03.016Z,3.97
2023-04-15T02:25:30.527Z,5.97
2023-04-15T02:27:58.677Z,3.65
2023-04-15T02:30:27.148Z,4.00
2023-04-15T02:32:54.762Z,4.32
2023-04-15T02:35:25.716Z,5.70
2023-04-15T02:37:53.217Z,4.18
2023-04-15T02:40:20.816Z,4.97
2023-04-15T02:42:48.366Z,3.28
2023-04-15T02:45:16.103Z,4.40
2023-04-15T02:47:44.365Z,3.03
2023-04-15T02:50:13.133Z,4.30
2023-04-15T02:52:42.562Z,4.80
2023-04-15T02:55:10.507Z,5.40
2023-04-15T02:57:39.115Z,5.18
2023-04-15T03:00:09.574Z,5.07
2023-04-15T03:02:38.392Z,5.78
2023-04-15T03:05:07.248Z,5.53
2023-04-15T03:07:34.723Z,6.50
2023-04-15T03:10:03.592Z,6.85
2023-04-15T03:14:58.596Z,5.82
2023-04-15T03:17:26.148Z,5.22
2023-04-15T03:19:53.610Z,5.43
2023-04-15T03:22:21.308Z,5.15
2023-04-15T03:24:48.804Z,3.72
2023-04-15T03:27:17.734Z,6.30
2023-04-15T03:32:12.807Z,6.03
2023-04-15T03:34:40.256Z,5.82
2023-04-15T03:37:07.788Z,6.15
2023-04-15T03:39:35.648Z,6.22
2023-04-15T03:42:03.692Z,5.97
2023-04-15T03:44:32.746Z,7.55
2023-04-15T03:47:00.326Z,5.68
2023-04-15T03:49:27.807Z,4.60
2023-04-15T03:51:55.693Z,5.30
2023-04-15T03:54:23.183Z,7.90
2023-04-15T03:56:50.726Z,8.43
2023-04-15T03:59:18.217Z,5.65
2023-04-15T04:01:47.277Z,6.10
2023-04-15T04:04:15.024Z,5.13
2023-04-15T04:06:42.662Z,5.85
2023-04-15T04:09:10.457Z,7.43
2023-04-15T04:11:38.532Z,6.88
2023-04-15T04:14:06.078Z,6.60
2023-04-15T04:16:33.593Z,6.60
2023-04-15T04:19:03.019Z,6.40
2023-04-15T04:21:31.211Z,7.15
2023-04-15T04:23:58.928Z,4.95
2023-04-15T04:26:29.185Z,8.02
2023-04-15T04:28:56.632Z,6.97
2023-04-15T04:31:24.218Z,7.10
2023-04-15T04:33:51.748Z,5.80
2023-04-15T04:36:20.665Z,6.25
2023-04-15T04:38:48.137Z,6.22
2023-04-15T04:41:16.297Z,3.22
2023-04-15T04:43:43.771Z,8.10
2023-04-15T04:46:11.953Z,6.85
2023-04-15T04:48:39.577Z,8.10
2023-04-15T04:51:07.658Z,5.38
2023-04-15T04:53:37.352Z,8.38
2023-04-15T04:56:05.313Z,7.55
2023-04-15T04:58:32.809Z,8.95
2023-04-15T05:01:00.394Z,8.27
2023-04-15T05:03:28.403Z,9.75
2023-04-15T05:05:55.957Z,12.23
2023-04-15T05:08:23.409Z,15.55
2023-04-15T05:10:52.186Z,7.28
2023-04-15T05:13:21.495Z,8.95
2023-04-15T05:15:48.964Z,9.98
2023-04-15T05:18:16.498Z,7.80
2023-04-15T05:20:44.088Z,8.00
2023-04-15T05:23:11.567Z,6.07
2023-04-15T05:25:39.037Z,8.23
2023-04-15T05:28:08.011Z,11.80
2023-04-15T05:30:35.532Z,13.07
2023-04-15T05:33:03.055Z,10.50
2023-04-15T05:35:30.803Z,10.13
2023-04-15T05:37:58.318Z,10.63
2023-04-15T05:40:25.870Z,8.05
2023-04-15T05:42:53.323Z,12.38
2023-04-15T05:45:22.322Z,7.70
2023-04-15T05:47:50.853Z,8.38
2023-04-15T05:50:18.533Z,8.60
2023-04-15T05:52:46.210Z,11.93
2023-04-15T05:55:14.234Z,8.93
2023-04-15T05:57:41.677Z,10.50
2023-04-15T06:00:10.176Z,12.32
2023-04-15T06:02:39.239Z,10.38
2023-04-15T06:05:09.829Z,10.00
2023-04-15T06:07:37.633Z,10.52
2023-04-15T06:10:05.839Z,8.95
2023-04-15T06:12:33.370Z,10.13
2023-04-15T06:15:00.831Z,8.75
2023-04-15T06:17:28.355Z,7.10
2023-04-15T06:19:57.190Z,8.00
2023-04-15T06:24:52.954Z,11.98
2023-04-15T06:27:20.685Z,13.75
2023-04-15T06:29:48.107Z,12.60
2023-04-15T06:32:15.561Z,12.57
2023-04-15T06:34:43.010Z,9.85
2023-04-15T06:37:16.004Z,13.20
2023-04-15T06:39:44.535Z,10.10
2023-04-15T06:42:12.342Z,10.95
2023-04-15T06:44:39.983Z,11.68
2023-04-15T06:47:07.504Z,12.88
2023-04-15T06:49:34.967Z,9.73
2023-04-15T06:52:02.743Z,8.50
2023-04-15T06:54:31.543Z,10.65
2023-04-15T06:56:59.191Z,7.97
2023-04-15T06:59:27.258Z,20.55
2023-04-15T07:01:54.823Z,8.52
2023-04-15T07:04:22.316Z,10.23
2023-04-15T07:06:49.921Z,9.95
2023-04-15T07:09:17.383Z,9.70
2023-04-15T07:11:46.257Z,9.40
2023-04-15T07:21:35.719Z,9.68
2023-04-15T07:24:03.405Z,9.38
2023-04-15T07:26:30.847Z,6.32
2023-04-15T07:28:59.860Z,3.88
2023-04-15T07:31:27.784Z,6.80
2023-04-15T07:33:55.328Z,6.60
2023-04-15T07:36:23.218Z,7.05
2023-04-15T07:38:50.676Z,8.18
2023-04-15T07:41:18.458Z,5.78
2023-04-15T07:43:45.955Z,5.15
2023-04-15T07:46:14.782Z,5.75
2023-04-15T07:48:42.625Z,8.60
2023-04-15T07:51:10.786Z,4.57
2023-04-15T07:53:38.531Z,4.80
2023-04-15T07:56:06.965Z,8.38
2023-04-15T07:58:34.414Z,5.25
2023-04-15T08:01:01.992Z,5.75
2023-04-15T08:03:30.875Z,6.93
2023-04-15T08:05:58.681Z,4.68
2023-04-15T08:08:26.284Z,6.40
2023-04-15T08:10:53.841Z,7.28
2023-04-15T08:13:21.700Z,6.18
2023-04-15T08:16:19.178Z,5.63
2023-04-15T08:18:48.567Z,6.40
2023-04-15T08:21:16.624Z,5.40
2023-04-15T08:23:44.637Z,6.75
2023-04-15T08:26:12.761Z,7.10
2023-04-15T08:28:42.025Z,5.93
2023-04-15T08:31:09.687Z,5.25
2023-04-15T08:33:37.321Z,7.60
2023-04-15T08:36:07.454Z,5.57
2023-04-15T08:38:35.054Z,16.55
2023-04-15T08:41:08.237Z,6.75
2023-04-15T08:43:38.832Z,6.07
2023-04-15T08:46:06.976Z,4.38
2023-04-15T08:48:35.668Z,3.10
2023-04-15T08:51:03.628Z,3.20
2023-04-15T08:53:32.553Z,3.42
2023-04-15T08:56:05.088Z,3.95
2023-04-15T08:58:33.431Z,2.08
2023-04-15T09:01:01.501Z,2.83
2023-04-15T09:03:29.824Z,2.25
2023-04-15T09:05:58.395Z,4.25
2023-04-15T09:08:25.916Z,4.55
2023-04-15T09:10:54.838Z,5.03
2023-04-15T09:18:29.069Z,2.40
2023-04-15T09:20:56.939Z,2.75
2023-04-15T09:23:24.492Z,1.88
2023-04-15T09:25:51.956Z,1.17
2023-04-15T09:28:27.250Z,2.10
2023-04-15T09:30:57.535Z,2.40
2023-04-15T09:33:26.161Z,3.88
2023-04-15T09:36:01.747Z,1.75
2023-04-15T09:38:29.568Z,2.28
2023-04-15T09:40:57.089Z,3.53
2023-04-15T09:43:39.186Z,2.00
2023-04-15T09:46:06.843Z,1.52
2023-04-15T09:48:34.411Z,3.72
2023-04-15T09:51:02.928Z,2.95
2023-04-15T09:53:31.893Z,1.73
2023-04-15T09:56:02.278Z,1.40
2023-04-15T09:58:33.529Z,2.60
2023-04-15T10:01:02.391Z,2.75
2023-04-15T10:06:00.246Z,1.42
2023-04-15T10:08:30.013Z,2.65
2023-04-15T10:10:57.970Z,4.13
2023-04-15T10:13:28.375Z,1.27
2023-04-15T10:16:00.380Z,1.13
2023-04-15T10:18:29.148Z,3.53
2023-04-15T10:20:56.908Z,2.38
2023-04-15T10:23:25.629Z,2.22
2023-04-15T10:25:54.638Z,2.03
2023-04-15T10:28:23.485Z,1.67
2023-04-15T10:33:22.769Z,2.00
2023-04-15T10:35:51.651Z,1.65
2023-04-15T10:38:36.308Z,2.47
2023-04-15T10:41:20.123Z,3.13
2023-04-15T10:43:52.752Z,1.58
2023-04-15T10:46:23.065Z,2.22
2023-04-15T10:48:53.092Z,1.25
2023-04-15T10:51:31.849Z,3.40
2023-04-15T10:54:01.005Z,2.15
2023-04-15T10:56:29.968Z,2.05
2023-04-15T10:59:00.178Z,1.50
2023-04-15T11:01:52.788Z,2.25
2023-04-15T11:08:03.038Z,1.95
2023-04-15T11:11:33.810Z,3.53
2023-04-15T11:14:43.292Z,2.47
2023-04-15T11:21:32.942Z,3.50
2023-04-15T11:25:33.384Z,3.17
2023-04-15T11:35:51.165Z,2.30
2023-04-15T11:45:22.380Z,4.07
2023-04-15T11:52:00.292Z,2.45
2023-04-15T12:10:20.876Z,2.30
2023-04-15T12:13:18.947Z,2.28
2023-04-15T12:16:19.641Z,2.50
2023-04-15T12:22:48.634Z,2.60
2023-04-15T12:29:43.468Z,3.42
2023-04-15T12:32:43.432Z,3.22
2023-04-15T12:36:29.793Z,3.35
2023-04-15T12:40:17.463Z,4.35
2023-04-15T12:43:15.156Z,2.45
2023-04-15T12:46:34.308Z,2.50
2023-04-15T12:50:06.665Z,2.38
2023-04-15T12:53:13.909Z,3.47
2023-04-15T12:56:28.079Z,3.88
2023-04-15T13:05:33.345Z,5.28
2023-04-15T13:08:40.438Z,7.03
2023-04-15T13:18:06.845Z,4.53
2023-04-15T13:24:47.878Z,3.40
2023-04-15T13:27:46.076Z,0.75
2023-04-15T13:31:03.227Z,2.78
2023-04-15T13:37:22.286Z,4.93
2023-04-15T13:46:36.258Z,6.35
2023-04-15T13:49:41.347Z,4.43
2023-04-15T13:52:56.114Z,2.15
2023-04-15T13:56:05.670Z,3.47
2023-04-15T13:59:18.073Z,6.22
2023-04-15T14:02:32.974Z,2.00
2023-04-15T14:05:31.663Z,3.78
2023-04-15T14:09:00.525Z,4.00
2023-04-15T14:12:09.751Z,5.20
2023-04-15T14:15:03.913Z,8.10
2023-04-15T14:17:55.282Z,4.25
2023-04-15T14:21:07.753Z,2.60
2023-04-15T14:27:21.170Z,3.17
2023-04-15T14:30:27.334Z,3.92
2023-04-15T14:33:51.227Z,3.22
2023-04-15T14:44:02.172Z,2.70
2023-04-15T14:47:27.043Z,3.03
2023-04-15T14:59:51.817Z,3.80
2023-04-15T15:03:20.841Z,3.35
2023-04-15T15:13:35.317Z,4.53
2023-04-15T15:19:37.278Z,3.25
2023-04-15T15:26:17.343Z,3.40
2023-04-15T15:28:51.634Z,4.35
2023-04-15T15:31:19.161Z,2.92
2023-04-15T15:33:46.711Z,3.25
2023-04-15T15:36:15.735Z,3.83
2023-04-15T15:38:56.211Z,3.58
2023-04-15T15:41:23.916Z,4.18
2023-04-15T15:43:51.409Z,4.80
2023-04-15T15:46:19.110Z,3.80
2023-04-15T15:48:46.718Z,3.35
2023-04-15T15:51:22.052Z,6.55
2023-04-15T15:57:12.032Z,11.88
2023-04-15T15:59:41.183Z,18.23
2023-04-15T16:02:13.054Z,7.90
2023-04-15T16:04:56.696Z,6.55
2023-04-15T16:07:28.395Z,5.85
2023-04-15T16:10:22.951Z,3.10
2023-04-15T16:12:50.557Z,3.33
2023-04-15T16:15:18.071Z,5.18
2023-04-15T16:17:45.785Z,5.97
2023-04-15T16:20:13.345Z,5.43
2023-04-15T16:22:42.195Z,4.30
2023-04-15T16:25:10.529Z,5.05
2023-04-15T16:27:50.348Z,4.13
2023-04-15T16:30:25.086Z,5.78
2023-04-15T16:32:53.072Z,4.90
2023-04-15T16:35:20.957Z,4.38
2023-04-15T16:37:49.799Z,5.88
2023-04-15T16:42:45.324Z,4.20
2023-04-15T16:45:12.851Z,9.57
2023-04-15T16:47:40.454Z,6.28
2023-04-15T16:50:11.541Z,9.27
2023-04-15T16:52:38.988Z,7.38
2023-04-15T16:55:08.326Z,8.57
2023-04-15T16:57:53.090Z,7.50
2023-04-15T17:00:23.805Z,5.82
2023-04-15T17:02:51.600Z,6.57
2023-04-15T17:05:19.438Z,8.77
2023-04-15T17:07:46.942Z,5.43
2023-04-15T17:10:16.214Z,7.60
2023-04-15T17:12:43.782Z,4.32
2023-04-15T17:15:11.404Z,4.85
2023-04-15T17:17:39.015Z,6.05
2023-04-15T17:20:07.703Z,4.55
2023-04-15T17:22:35.242Z,5.13
2023-04-15T17:25:03.111Z,5.90
2023-04-15T17:27:32.179Z,5.85
2023-04-15T17:29:59.675Z,7.13
2023-04-15T17:32:31.541Z,7.32
2023-04-15T17:34:59.288Z,4.40
2023-04-15T17:37:26.859Z,7.05
2023-04-15T17:39:54.361Z,3.35
2023-04-15T17:42:22.891Z,7.55
2023-04-15T17:44:51.732Z,8.73
2023-04-15T17:47:19.223Z,9.68
2023-04-15T17:49:47.185Z,5.80
2023-04-15T17:52:14.775Z,7.32
2023-04-15T17:54:42.240Z,4.80
2023-04-15T17:57:10.176Z,4.45
2023-04-15T17:59:37.816Z,6.55
2023-04-15T18:02:06.746Z,4.50
2023-04-15T18:04:34.406Z,5.60
2023-04-15T18:07:01.990Z,5.95
2023-04-15T18:09:31.790Z,4.45
2023-04-15T18:11:59.249Z,3.65
2023-04-15T18:14:34.212Z,7.13
2023-04-15T18:17:02.923Z,7.00
2023-04-15T18:19:32.025Z,8.15
2023-04-15T18:22:00.835Z,6.25
2023-04-15T18:24:28.570Z,6.55
2023-04-15T18:26:56.311Z,5.95
2023-04-15T18:29:23.941Z,7.80
2023-04-15T18:31:51.533Z,5.45
2023-04-15T18:34:19.115Z,4.97
2023-04-15T18:36:48.053Z,5.32
2023-04-15T18:39:16.865Z,5.15
2023-04-15T18:44:11.630Z,8.52
2023-04-15T18:46:39.154Z,5.45
2023-04-15T18:49:07.187Z,6.78
2023-04-15T18:51:34.959Z,8.23
2023-04-15T18:54:03.798Z,10.00
2023-04-15T18:56:31.589Z,6.97
2023-04-15T18:59:25.405Z,7.32
2023-04-15T19:01:46.797Z,8.32
2023-04-15T19:04:14.636Z,7.95
2023-04-15T19:06:42.240Z,6.13
2023-04-15T19:09:11.209Z,5.63
2023-04-15T19:11:38.980Z,3.33
2023-04-15T19:14:06.578Z,5.15
2023-04-15T19:16:34.167Z,5.35
2023-04-15T19:19:01.834Z,3.45
2023-04-15T19:21:32.577Z,5.00
2023-04-15T19:24:01.148Z,4.13
2023-04-15T19:26:30.098Z,5.18
2023-04-15T19:28:58.841Z,5.13
2023-04-15T19:33:54.000Z,5.03
2023-04-15T19:36:21.739Z,7.35
2023-04-15T19:38:49.200Z,5.03
2023-04-15T19:41:16.784Z,4.97
2023-04-15T19:43:45.752Z,4.28
2023-04-15T19:46:13.680Z,5.20
2023-04-15T19:48:41.225Z,6.07
2023-04-15T19:51:08.733Z,3.70
2023-04-15T19:53:36.447Z,3.67
2023-04-15T19:56:04.209Z,5.10
2023-04-15T19:58:32.445Z,2.72
2023-04-15T20:01:02.217Z,5.78
2023-04-15T20:03:30.147Z,4.65
2023-04-15T20:05:57.953Z,3.10
2023-04-15T20:08:25.449Z,4.75
2023-04-15T20:10:53.174Z,3.53
2023-04-15T20:13:20.637Z,3.03
2023-04-15T20:15:48.092Z,4.55
2023-04-15T20:18:16.995Z,4.75
2023-04-15T20:20:44.717Z,4.22
2023-04-15T20:23:12.338Z,3.65
2023-04-15T20:25:39.885Z,5.10
2023-04-15T20:28:07.422Z,4.32
2023-04-15T20:30:35.353Z,4.13
2023-04-15T20:33:02.946Z,6.00
2023-04-15T20:35:34.752Z,3.60
2023-04-15T20:38:02.658Z,6.47
2023-04-15T20:40:30.253Z,4.95
2023-04-15T20:42:57.816Z,4.45
2023-04-15T20:45:25.375Z,5.05
2023-04-15T20:47:54.607Z,4.97
2023-04-15T20:50:22.269Z,4.72
2023-04-15T20:52:51.114Z,6.20
2023-04-15T20:57:46.359Z,4.47
2023-04-15T21:00:14.182Z,4.38
2023-04-15T21:02:41.878Z,3.75
2023-04-15T21:05:09.870Z,5.28
2023-04-15T21:07:37.323Z,5.00
2023-04-15T21:10:07.286Z,5.60
2023-04-15T21:12:34.734Z,4.80
2023-04-15T21:15:02.237Z,5.95
2023-04-15T21:17:29.922Z,7.95
2023-04-15T21:19:57.558Z,8.45
2023-04-15T21:22:25.160Z,6.43
2023-04-15T21:24:52.771Z,7.90
2023-04-15T21:27:21.761Z,5.47
2023-04-15T21:29:49.249Z,14.55
2023-04-15T21:32:17.011Z,14.77
2023-04-15T21:34:44.749Z,11.93
2023-04-15T21:37:12.289Z,9.63
2023-04-15T21:39:39.797Z,7.97
2023-04-15T21:42:07.333Z,25.45
2023-04-15T21:44:36.161Z,32.20
2023-04-15T21:49:31.854Z,10.93
2023-04-15T21:52:00.966Z,6.57
2023-04-15T21:54:28.849Z,14.00
2023-04-15T21:56:56.914Z,11.20
2023-04-15T21:59:24.577Z,18.20
2023-04-15T22:01:53.596Z,13.55
2023-04-15T22:04:21.357Z,6.97
2023-04-15T22:06:48.935Z,13.40
2023-04-15T22:09:16.563Z,9.73
2023-04-15T22:11:44.373Z,9.02
2023-04-15T22:14:12.133Z,8.63
2023-04-15T22:16:39.591Z,6.60
2023-04-15T22:19:08.923Z,14.93
2023-04-15T22:21:36.473Z,9.98
2023-04-15T22:24:33.751Z,7.40
2023-04-15T22:26:51.584Z,5.60
2023-04-15T22:29:19.056Z,7.30
2023-04-15T22:31:46.777Z,7.03
2023-04-15T22:34:21.048Z,4.93
2023-04-15T22:36:48.612Z,6.53
2023-04-15T22:39:16.615Z,7.40
2023-04-15T22:41:44.766Z,8.25
2023-04-15T22:44:12.779Z,7.05
2023-04-15T22:46:40.620Z,7.22
2023-04-15T22:49:09.448Z,7.20
2023-04-15T22:51:38.309Z,7.03
2023-04-15T22:56:33.271Z,6.13
2023-04-15T22:59:00.779Z,7.05
2023-04-15T23:01:28.328Z,6.30
2023-04-15T23:04:05.175Z,6.80
2023-04-15T23:06:34.015Z,7.22
2023-04-15T23:09:02.975Z,7.28
2023-04-15T23:11:30.522Z,8.38
2023-04-15T23:13:58.199Z,6.00
2023-04-15T23:16:25.946Z,6.13
2023-04-15T23:18:53.445Z,7.00
2023-04-15T23:21:20.999Z,8.75
2023-04-15T23:23:48.466Z,5.68
2023-04-15T23:26:17.290Z,7.97
2023-04-15T23:33:41.069Z,7.40
2023-04-15T23:36:08.679Z,8.05
2023-04-15T23:38:36.168Z,8.88
2023-04-15T23:41:03.654Z,8.80
2023-04-15T23:43:32.493Z,8.13
2023-04-15T23:46:00.020Z,7.72
2023-04-15T23:48:27.488Z,7.13
2023-04-15T23:50:54.922Z,10.38
2023-04-15T23:53:22.512Z,7.00
2023-04-15T23:55:50.064Z,8.35
2023-04-15T23:58:17.506Z,7.68
